Beesel, Netherlands
Current Conditions -  °F | °C
As of 10:20 AM on Saturday 25 Oct 2014 (Local Time) from EDLN Reporting Station
Haze Haze  
Wind Chill: 54°   Ceiling: 400
Heat Index: 54°   Visibility: 2.5mi
Dew Point: 54°   Wind: 2mph
Humidity: 100%   Direction: NA
Pressure: 30.06"   Gusts: NA
Location:  51.27°N, 6.04°E
Report Text: EDLN 250820Z VRB02KT 4000 BR BKN004 12/12 Q1018 RMK ATIS F
Loading
Personal Weather Stations






























Interactive Weather Map
Tropical Storm Tracking
New forecast layout! Learn more

10-Day Weather Forecast

Advertisements
Track Severe Weather on mobile